createdAt,value
2023-03-24T00:01:20.200Z,100.00
2023-03-24T00:03:49.016Z,100.00
2023-03-24T00:06:18.930Z,100.00
2023-03-24T00:08:48.002Z,100.00
2023-03-24T00:11:15.095Z,100.00
2023-03-24T00:13:41.992Z,100.00
2023-03-24T00:16:11.116Z,100.00
2023-03-24T00:18:39.366Z,100.00
2023-03-24T00:21:07.827Z,100.00
2023-03-24T00:23:34.832Z,100.00
2023-03-24T00:26:04.295Z,100.00
2023-03-24T00:28:35.034Z,100.00
2023-03-24T00:31:04.541Z,100.00
2023-03-24T00:33:33.012Z,100.00
2023-03-24T00:36:00.070Z,100.00
2023-03-24T00:38:27.033Z,100.00
2023-03-24T00:40:54.165Z,100.00
2023-03-24T00:43:21.012Z,100.00
2023-03-24T00:45:48.093Z,100.00
2023-03-24T00:48:18.356Z,100.00
2023-03-24T00:50:46.923Z,100.00
2023-03-24T00:53:17.166Z,100.00
2023-03-24T00:55:49.645Z,100.00
2023-03-24T00:58:21.825Z,100.00
2023-03-24T01:00:52.622Z,100.00
2023-03-24T01:03:22.194Z,100.00
2023-03-24T01:05:49.048Z,100.00
2023-03-24T01:08:20.403Z,100.00
2023-03-24T01:10:55.693Z,100.00
2023-03-24T01:13:24.464Z,100.00
2023-03-24T01:15:52.143Z,100.00
2023-03-24T01:18:19.071Z,100.00
2023-03-24T01:20:47.289Z,100.00
2023-03-24T01:23:15.454Z,100.00
2023-03-24T01:25:48.183Z,100.00
2023-03-24T01:28:17.292Z,100.00
2023-03-24T01:30:44.387Z,100.00
2023-03-24T01:33:11.393Z,100.00
2023-03-24T01:35:38.274Z,100.00
2023-03-24T01:38:07.360Z,100.00
2023-03-24T01:40:35.078Z,100.00
2023-03-24T01:43:01.869Z,100.00
2023-03-24T01:45:40.778Z,100.00
2023-03-24T01:48:22.115Z,100.00
2023-03-24T01:50:58.575Z,100.00
2023-03-24T01:53:25.580Z,100.00
2023-03-24T01:55:52.372Z,100.00
2023-03-24T01:58:19.264Z,100.00
2023-03-24T02:00:46.470Z,100.00
2023-03-24T02:03:14.993Z,100.00
2023-03-24T02:05:41.994Z,100.00
2023-03-24T02:08:34.862Z,100.00
2023-03-24T02:11:01.801Z,100.00
2023-03-24T02:13:28.696Z,100.00
2023-03-24T02:16:17.566Z,100.00
2023-03-24T02:19:02.996Z,100.00
2023-03-24T02:21:45.853Z,100.00
2023-03-24T02:24:55.320Z,100.00
2023-03-24T02:27:33.996Z,100.00
2023-03-24T02:30:40.461Z,100.00
2023-03-24T02:33:14.148Z,100.00
2023-03-24T02:36:15.961Z,100.00
2023-03-24T02:39:07.448Z,100.00
2023-03-24T02:41:39.793Z,100.00
2023-03-24T02:44:44.140Z,100.00
2023-03-24T02:47:14.982Z,100.00
2023-03-24T02:49:44.459Z,100.00
2023-03-24T02:52:23.072Z,100.00
2023-03-24T02:54:52.632Z,100.00
2023-03-24T02:57:23.749Z,100.00
2023-03-24T02:59:57.819Z,100.00
2023-03-24T03:02:27.553Z,100.00
2023-03-24T03:04:56.132Z,100.00
2023-03-24T03:07:25.474Z,100.00
2023-03-24T03:10:14.706Z,100.00
2023-03-24T03:12:41.467Z,100.00
2023-03-24T03:15:12.687Z,100.00
2023-03-24T03:17:59.954Z,100.00
2023-03-24T03:20:26.883Z,100.00
2023-03-24T03:23:05.845Z,100.00
2023-03-24T03:25:38.792Z,100.00
2023-03-24T03:28:05.656Z,100.00
2023-03-24T03:30:37.792Z,100.00
2023-03-24T03:33:07.610Z,100.00
2023-03-24T03:35:43.633Z,100.00
2023-03-24T03:38:16.077Z,100.00
2023-03-24T03:40:56.216Z,100.00
2023-03-24T03:43:23.339Z,100.00
2023-03-24T03:45:50.202Z,100.00
2023-03-24T03:48:17.274Z,100.00
2023-03-24T03:50:44.087Z,100.00
2023-03-24T03:53:11.382Z,100.00
2023-03-24T03:55:38.341Z,100.00
2023-03-24T03:58:05.200Z,100.00
2023-03-24T04:00:32.079Z,100.00
2023-03-24T04:03:25.769Z,100.00
2023-03-24T04:06:29.983Z,100.00
2023-03-24T04:09:04.096Z,100.00
2023-03-24T04:12:21.727Z,100.00
2023-03-24T04:15:01.093Z,100.00
2023-03-24T04:17:46.351Z,100.00
2023-03-24T04:20:19.164Z,100.00
2023-03-24T04:23:09.711Z,100.00
2023-03-24T04:26:02.045Z,100.00
2023-03-24T04:28:58.310Z,100.00
2023-03-24T04:31:28.170Z,100.00
2023-03-24T04:34:16.465Z,100.00
2023-03-24T04:36:50.619Z,100.00
2023-03-24T04:39:19.518Z,100.00
2023-03-24T04:41:47.602Z,100.00
2023-03-24T04:44:17.663Z,100.00
2023-03-24T04:46:45.109Z,100.00
2023-03-24T04:49:11.964Z,100.00
2023-03-24T04:51:38.934Z,100.00
2023-03-24T04:54:08.098Z,100.00
2023-03-24T04:56:44.076Z,100.00
2023-03-24T04:59:13.039Z,100.00
2023-03-24T05:01:40.418Z,100.00
2023-03-24T05:04:07.768Z,100.00
2023-03-24T05:06:34.682Z,100.00
2023-03-24T05:09:01.512Z,100.00
2023-03-24T05:11:28.459Z,100.00
2023-03-24T05:13:55.659Z,100.00
2023-03-24T05:16:22.583Z,100.00
2023-03-24T05:18:49.371Z,100.00
2023-03-24T05:21:16.281Z,100.00
2023-03-24T05:23:43.232Z,100.00
2023-03-24T05:26:10.140Z,100.00
2023-03-24T05:28:36.932Z,100.00
2023-03-24T05:31:03.848Z,100.00
2023-03-24T05:33:30.966Z,100.00
2023-03-24T05:35:57.777Z,100.00
2023-03-24T05:38:24.617Z,100.00
2023-03-24T05:40:51.478Z,100.00
2023-03-24T05:43:18.307Z,100.00
2023-03-24T05:45:45.511Z,100.00
2023-03-24T05:48:12.551Z,100.00
2023-03-24T05:50:39.328Z,100.00
2023-03-24T05:53:06.318Z,100.00
2023-03-24T05:55:33.151Z,100.00
2023-03-24T05:58:02.198Z,100.00
2023-03-24T06:00:31.806Z,100.00
2023-03-24T06:02:59.047Z,100.00
2023-03-24T06:05:26.502Z,100.00
2023-03-24T06:07:58.771Z,100.00
2023-03-24T06:10:29.513Z,100.00
2023-03-24T06:12:56.492Z,100.00
2023-03-24T06:15:24.455Z,100.00
2023-03-24T06:17:54.825Z,100.00
2023-03-24T06:20:21.952Z,100.00
2023-03-24T06:22:48.913Z,100.00
2023-03-24T06:25:16.966Z,100.00
2023-03-24T06:27:46.330Z,100.00
2023-03-24T06:30:16.675Z,100.00
2023-03-24T06:32:46.644Z,100.00
2023-03-24T06:35:15.013Z,100.00
2023-03-24T06:37:42.114Z,100.00
2023-03-24T06:40:12.908Z,100.00
2023-03-24T06:42:39.755Z,100.00
2023-03-24T06:45:07.509Z,100.00
2023-03-24T06:47:34.387Z,100.00
2023-03-24T06:50:01.263Z,100.00
2023-03-24T06:52:28.549Z,100.00
2023-03-24T06:54:55.911Z,100.00
2023-03-24T06:57:22.734Z,100.00
2023-03-24T06:59:50.158Z,100.00
2023-03-24T07:02:17.659Z,100.00
2023-03-24T07:04:45.893Z,100.00
2023-03-24T07:07:50.034Z,100.00
2023-03-24T07:09:59.916Z,100.00
2023-03-24T07:12:26.782Z,100.00
2023-03-24T07:14:53.613Z,100.00
2023-03-24T07:17:20.558Z,100.00
2023-03-24T07:19:47.561Z,100.00
2023-03-24T07:22:14.351Z,99.79
2023-03-24T07:24:41.531Z,98.81
2023-03-24T07:27:09.275Z,97.78
2023-03-24T07:29:36.480Z,97.38
2023-03-24T07:32:04.134Z,96.31
2023-03-24T07:34:32.027Z,95.91
2023-03-24T07:37:00.687Z,95.28
2023-03-24T07:39:28.669Z,94.86
2023-03-24T07:41:55.471Z,93.65
2023-03-24T07:44:22.877Z,93.20
2023-03-24T07:46:49.756Z,92.69
2023-03-24T07:49:19.812Z,92.55
2023-03-24T07:51:46.977Z,93.05
2023-03-24T07:54:13.851Z,91.71
2023-03-24T07:56:40.688Z,91.70
2023-03-24T07:59:09.814Z,92.03
2023-03-24T08:01:37.648Z,92.12
2023-03-24T08:04:07.048Z,92.97
2023-03-24T08:06:34.924Z,92.08
2023-03-24T08:09:01.930Z,91.60
2023-03-24T08:11:29.576Z,91.23
2023-03-24T08:13:56.520Z,92.00
2023-03-24T08:16:26.134Z,92.31
2023-03-24T08:18:53.025Z,92.00
2023-03-24T08:21:19.910Z,92.04
2023-03-24T08:23:46.743Z,91.27
2023-03-24T08:26:13.584Z,91.07
2023-03-24T08:28:41.625Z,92.08
2023-03-24T08:31:08.490Z,92.17
2023-03-24T08:33:35.705Z,92.11
2023-03-24T08:36:02.521Z,92.06
2023-03-24T08:38:32.548Z,92.64
2023-03-24T08:41:06.983Z,92.03
2023-03-24T08:43:35.038Z,92.82
2023-03-24T08:46:02.080Z,92.67
2023-03-24T08:48:29.593Z,92.55
2023-03-24T08:50:56.749Z,91.18
2023-03-24T08:53:23.622Z,90.41
2023-03-24T08:55:50.595Z,91.11
2023-03-24T08:58:19.148Z,90.20
2023-03-24T09:00:46.763Z,90.24
2023-03-24T09:03:18.508Z,89.46
2023-03-24T09:05:46.818Z,89.77
2023-03-24T09:08:14.265Z,89.95
2023-03-24T09:10:41.834Z,90.35
2023-03-24T09:13:08.711Z,90.58
2023-03-24T09:15:35.817Z,90.49
2023-03-24T09:18:02.936Z,92.06
2023-03-24T09:20:29.753Z,92.84
2023-03-24T09:22:56.798Z,91.72
2023-03-24T09:25:23.660Z,91.83
2023-03-24T09:27:50.512Z,91.50
2023-03-24T09:30:18.027Z,89.00
2023-03-24T09:32:45.631Z,88.84
2023-03-24T09:35:12.830Z,86.92
2023-03-24T09:37:40.528Z,86.29
2023-03-24T09:40:07.964Z,84.64
2023-03-24T09:42:39.403Z,83.67
2023-03-24T09:45:19.195Z,81.73
2023-03-24T09:48:08.000Z,77.10
2023-03-24T09:50:54.073Z,73.67
2023-03-24T09:53:54.739Z,70.81
2023-03-24T09:56:22.337Z,68.97
2023-03-24T09:58:53.327Z,68.94
2023-03-24T10:01:20.153Z,66.10
2023-03-24T10:03:47.156Z,65.52
2023-03-24T10:06:18.309Z,62.76
2023-03-24T10:08:49.012Z,61.65
2023-03-24T10:11:41.143Z,63.38
2023-03-24T10:14:10.783Z,63.16
2023-03-24T10:17:14.748Z,64.76
2023-03-24T10:20:18.934Z,66.31
2023-03-24T10:23:24.342Z,68.51
2023-03-24T10:26:21.398Z,69.09
2023-03-24T10:28:52.588Z,68.10
2023-03-24T10:31:29.505Z,68.99
2023-03-24T10:33:56.921Z,68.91
2023-03-24T10:36:23.783Z,68.24
2023-03-24T10:38:51.016Z,65.54
2023-03-24T10:41:22.128Z,66.99
2023-03-24T10:43:50.384Z,66.18
2023-03-24T10:46:24.659Z,62.41
2023-03-24T10:48:53.856Z,63.14
2023-03-24T10:51:29.140Z,62.18
2023-03-24T10:54:27.667Z,59.08
2023-03-24T10:57:00.929Z,59.97
2023-03-24T11:00:27.223Z,60.20
2023-03-24T11:02:59.516Z,61.76
2023-03-24T11:05:35.176Z,61.71
2023-03-24T11:08:26.093Z,61.89
2023-03-24T11:10:52.894Z,61.83
2023-03-24T11:13:40.990Z,62.47
2023-03-24T11:16:12.092Z,63.80
2023-03-24T11:18:39.011Z,64.36
2023-03-24T11:21:06.332Z,65.46
2023-03-24T11:23:34.826Z,64.99
2023-03-24T11:26:23.154Z,65.78
2023-03-24T11:28:54.398Z,66.21
2023-03-24T11:31:24.705Z,65.89
2023-03-24T11:34:01.505Z,66.08
2023-03-24T11:36:33.073Z,65.24
2023-03-24T11:39:04.585Z,65.64
2023-03-24T11:41:31.453Z,65.87
2023-03-24T11:44:23.584Z,64.82
2023-03-24T11:46:58.933Z,65.17
2023-03-24T11:49:34.127Z,65.49
2023-03-24T11:52:00.932Z,68.17
2023-03-24T11:54:33.039Z,67.62
2023-03-24T11:57:01.941Z,68.54
2023-03-24T11:59:32.285Z,69.45
2023-03-24T12:02:20.008Z,70.67
2023-03-24T12:04:59.797Z,71.40
2023-03-24T12:08:01.393Z,72.51
2023-03-24T12:10:40.342Z,74.19
2023-03-24T12:13:29.620Z,74.21
2023-03-24T12:16:27.623Z,75.33
2023-03-24T12:19:28.471Z,75.90
2023-03-24T12:22:17.019Z,76.51
2023-03-24T12:24:58.837Z,76.04
2023-03-24T12:27:36.052Z,76.96
2023-03-24T12:30:23.673Z,78.22
2023-03-24T12:33:18.218Z,78.53
2023-03-24T12:35:57.257Z,78.84
2023-03-24T12:38:49.128Z,79.72
2023-03-24T12:41:25.280Z,80.02
2023-03-24T12:44:13.791Z,81.53
2023-03-24T12:47:05.148Z,80.88
2023-03-24T12:49:50.738Z,81.75
2023-03-24T12:52:23.324Z,81.39
2023-03-24T12:55:18.391Z,81.80
2023-03-24T12:57:59.946Z,82.64
2023-03-24T13:00:33.030Z,83.70
2023-03-24T13:03:06.159Z,83.60
2023-03-24T13:06:16.264Z,84.45
2023-03-24T13:08:49.418Z,84.97
2023-03-24T13:11:26.737Z,84.33
2023-03-24T13:13:59.061Z,83.58
2023-03-24T13:16:28.498Z,84.24
2023-03-24T13:18:56.364Z,83.93
2023-03-24T13:21:26.051Z,85.52
2023-03-24T13:24:08.919Z,85.78
2023-03-24T13:26:58.618Z,86.49
2023-03-24T13:29:48.426Z,85.90
2023-03-24T13:32:25.460Z,86.86
2023-03-24T13:35:14.923Z,87.62
2023-03-24T13:37:52.527Z,87.65
2023-03-24T13:40:32.788Z,86.99
2023-03-24T13:43:01.347Z,87.56
2023-03-24T13:45:52.706Z,87.47
2023-03-24T13:48:44.306Z,87.62
2023-03-24T13:51:17.575Z,87.96
2023-03-24T13:53:54.815Z,88.59
2023-03-24T13:56:38.975Z,88.61
2023-03-24T13:59:29.823Z,89.59
2023-03-24T14:02:22.653Z,90.46
2023-03-24T14:04:55.780Z,90.36
2023-03-24T14:07:41.249Z,91.08
2023-03-24T14:10:14.138Z,91.07
2023-03-24T14:12:59.800Z,92.06
2023-03-24T14:15:35.941Z,91.88
2023-03-24T14:18:25.044Z,91.87
2023-03-24T14:20:58.131Z,91.76
2023-03-24T14:23:34.238Z,92.29
2023-03-24T14:26:01.110Z,92.22
2023-03-24T14:28:41.673Z,92.51
2023-03-24T14:31:19.155Z,92.45
2023-03-24T14:34:02.170Z,93.12
2023-03-24T14:36:40.126Z,92.90
2023-03-24T14:39:29.656Z,92.15
2023-03-24T14:41:59.068Z,92.54
2023-03-24T14:44:49.554Z,92.12
2023-03-24T14:47:23.813Z,91.93
2023-03-24T14:49:54.774Z,92.33
2023-03-24T14:52:43.826Z,92.68
2023-03-24T14:55:12.525Z,92.66
2023-03-24T14:57:43.831Z,92.16
2023-03-24T15:00:29.264Z,92.10
2023-03-24T15:02:59.046Z,91.19
2023-03-24T15:05:31.684Z,88.12
2023-03-24T15:08:21.683Z,85.44
2023-03-24T15:10:51.514Z,84.12
2023-03-24T15:13:40.128Z,83.64
2023-03-24T15:16:12.897Z,83.71
2023-03-24T15:19:02.046Z,83.21
2023-03-24T15:21:33.621Z,83.85
2023-03-24T15:24:01.605Z,84.95
2023-03-24T15:26:29.989Z,86.56
2023-03-24T15:29:01.679Z,87.03
2023-03-24T15:31:33.994Z,87.56
2023-03-24T15:34:35.144Z,89.04
2023-03-24T15:37:05.437Z,88.97
2023-03-24T15:39:36.936Z,89.87
2023-03-24T15:42:15.989Z,90.37
2023-03-24T15:44:43.170Z,90.90
2023-03-24T15:47:21.512Z,90.48
2023-03-24T15:49:52.467Z,92.30
2023-03-24T15:52:38.432Z,92.26
2023-03-24T15:55:24.912Z,92.24
2023-03-24T15:57:59.623Z,91.81
2023-03-24T16:00:28.613Z,93.42
2023-03-24T16:02:57.787Z,93.61
2023-03-24T16:05:26.355Z,91.49
2023-03-24T16:08:04.406Z,89.90
2023-03-24T16:10:32.612Z,91.75
2023-03-24T16:13:25.580Z,92.61
2023-03-24T16:15:59.714Z,93.43
2023-03-24T16:18:34.171Z,94.87
2023-03-24T16:21:02.369Z,96.82
2023-03-24T16:23:30.525Z,97.05
2023-03-24T16:25:57.362Z,97.95
2023-03-24T16:28:25.236Z,98.51
2023-03-24T16:31:05.064Z,99.03
2023-03-24T16:33:32.725Z,99.59
2023-03-24T16:36:00.735Z,99.93
2023-03-24T16:38:27.705Z,100.00
2023-03-24T16:40:55.966Z,100.00
2023-03-24T16:43:23.046Z,100.00
2023-03-24T16:45:50.450Z,100.00
2023-03-24T16:48:17.790Z,100.00
2023-03-24T16:50:46.350Z,100.00
2023-03-24T16:53:13.287Z,100.00
2023-03-24T16:55:41.647Z,100.00
2023-03-24T16:58:08.684Z,100.00
2023-03-24T17:00:37.159Z,100.00
2023-03-24T17:03:05.055Z,100.00
2023-03-24T17:05:37.812Z,100.00
2023-03-24T17:08:04.784Z,100.00
2023-03-24T17:10:31.568Z,100.00
2023-03-24T17:12:58.360Z,100.00
2023-03-24T17:15:26.825Z,100.00
2023-03-24T17:17:53.841Z,100.00
2023-03-24T17:20:21.233Z,100.00
2023-03-24T17:22:49.912Z,100.00
2023-03-24T17:25:18.558Z,100.00
2023-03-24T17:27:45.792Z,100.00
2023-03-24T17:30:19.850Z,100.00
2023-03-24T17:32:46.950Z,100.00
2023-03-24T17:35:15.484Z,100.00
2023-03-24T17:37:42.268Z,100.00
2023-03-24T17:40:13.291Z,100.00
2023-03-24T17:42:41.199Z,100.00
2023-03-24T17:45:09.470Z,100.00
2023-03-24T17:47:36.494Z,100.00
2023-03-24T17:50:09.579Z,100.00
2023-03-24T17:52:40.718Z,100.00
2023-03-24T17:55:07.795Z,100.00
2023-03-24T17:57:34.647Z,100.00
2023-03-24T18:00:01.723Z,100.00
2023-03-24T18:02:28.631Z,100.00
2023-03-24T18:04:55.542Z,100.00
2023-03-24T18:07:23.189Z,100.00
2023-03-24T18:09:50.206Z,100.00
2023-03-24T18:12:17.962Z,100.00
2023-03-24T18:14:45.586Z,100.00
2023-03-24T18:17:12.746Z,100.00
2023-03-24T18:19:40.371Z,100.00
2023-03-24T18:22:07.389Z,100.00
2023-03-24T18:24:34.551Z,100.00
2023-03-24T18:27:02.684Z,100.00
2023-03-24T18:29:30.440Z,100.00
2023-03-24T18:31:57.422Z,100.00
2023-03-24T18:34:24.345Z,100.00
2023-03-24T18:36:51.229Z,100.00
2023-03-24T18:39:18.000Z,100.00
2023-03-24T18:41:44.864Z,100.00
2023-03-24T18:44:13.020Z,100.00
2023-03-24T18:46:40.369Z,100.00
2023-03-24T18:49:07.421Z,100.00
2023-03-24T18:51:35.627Z,100.00
2023-03-24T18:54:02.490Z,100.00
2023-03-24T18:56:29.416Z,100.00
2023-03-24T18:58:56.281Z,100.00
2023-03-24T19:01:26.287Z,100.00
2023-03-24T19:03:53.204Z,100.00
2023-03-24T19:06:20.383Z,100.00
2023-03-24T19:08:50.484Z,100.00
2023-03-24T19:11:17.440Z,100.00
2023-03-24T19:13:46.317Z,100.00
2023-03-24T19:16:13.201Z,100.00
2023-03-24T19:18:40.156Z,100.00
2023-03-24T19:21:07.447Z,100.00
2023-03-24T19:23:34.470Z,100.00
2023-03-24T19:26:02.095Z,100.00
2023-03-24T19:28:30.830Z,100.00
2023-03-24T19:30:59.347Z,100.00
2023-03-24T19:33:29.543Z,100.00
2023-03-24T19:35:56.940Z,100.00
2023-03-24T19:38:24.095Z,100.00
2023-03-24T19:40:54.214Z,100.00
2023-03-24T19:43:21.940Z,100.00
2023-03-24T19:45:52.628Z,100.00
2023-03-24T19:48:19.622Z,100.00
2023-03-24T19:50:46.552Z,100.00
2023-03-24T19:53:13.467Z,100.00
2023-03-24T19:55:40.384Z,100.00
2023-03-24T19:58:07.260Z,100.00
2023-03-24T20:00:34.956Z,100.00
2023-03-24T20:03:02.156Z,100.00
2023-03-24T20:05:29.015Z,100.00
2023-03-24T20:07:59.648Z,100.00
2023-03-24T20:10:27.064Z,100.00
2023-03-24T20:12:54.152Z,100.00
2023-03-24T20:15:21.041Z,100.00
2023-03-24T20:17:48.325Z,100.00
2023-03-24T20:20:15.272Z,100.00
2023-03-24T20:22:44.773Z,100.00
2023-03-24T20:25:13.206Z,100.00
2023-03-24T20:27:40.101Z,100.00
2023-03-24T20:30:08.461Z,100.00
2023-03-24T20:32:35.823Z,100.00
2023-03-24T20:35:06.098Z,100.00
2023-03-24T20:37:35.854Z,100.00
2023-03-24T20:40:06.901Z,100.00
2023-03-24T20:42:33.790Z,100.00
2023-03-24T20:45:00.974Z,100.00
2023-03-24T20:47:27.997Z,100.00
2023-03-24T20:49:54.937Z,100.00
2023-03-24T20:52:23.141Z,100.00
2023-03-24T20:54:51.491Z,100.00
2023-03-24T20:57:19.306Z,100.00
2023-03-24T20:59:49.436Z,100.00
2023-03-24T21:02:16.388Z,100.00
2023-03-24T21:04:43.518Z,100.00
2023-03-24T21:07:10.556Z,100.00
2023-03-24T21:09:37.551Z,100.00
2023-03-24T21:12:06.630Z,100.00
2023-03-24T21:14:34.201Z,100.00
2023-03-24T21:17:01.513Z,100.00
2023-03-24T21:19:28.501Z,100.00
2023-03-24T21:21:56.212Z,100.00
2023-03-24T21:24:23.618Z,100.00
2023-03-24T21:26:51.335Z,100.00
2023-03-24T21:29:18.255Z,100.00
2023-03-24T21:31:45.205Z,100.00
2023-03-24T21:34:12.108Z,100.00
2023-03-24T21:36:39.106Z,100.00
2023-03-24T21:39:07.537Z,100.00
2023-03-24T21:41:34.579Z,100.00
2023-03-24T21:44:01.538Z,100.00
2023-03-24T21:46:28.372Z,100.00
2023-03-24T21:48:55.940Z,100.00
2023-03-24T21:51:30.768Z,100.00
2023-03-24T21:54:04.688Z,100.00
2023-03-24T21:56:32.583Z,100.00
2023-03-24T21:58:59.850Z,100.00
2023-03-24T22:01:27.326Z,100.00
2023-03-24T22:03:59.056Z,100.00
2023-03-24T22:06:29.444Z,100.00
2023-03-24T22:08:58.804Z,100.00
2023-03-24T22:11:25.978Z,100.00
2023-03-24T22:13:53.082Z,100.00
2023-03-24T22:16:19.995Z,100.00
2023-03-24T22:18:47.540Z,100.00
2023-03-24T22:21:14.507Z,100.00
2023-03-24T22:23:42.968Z,100.00
2023-03-24T22:26:14.495Z,100.00
2023-03-24T22:28:42.475Z,100.00
2023-03-24T22:31:13.827Z,100.00
2023-03-24T22:33:40.784Z,100.00
2023-03-24T22:36:08.478Z,100.00
2023-03-24T22:38:35.632Z,100.00
2023-03-24T22:41:04.906Z,100.00
2023-03-24T22:43:32.002Z,100.00
2023-03-24T22:45:58.904Z,100.00
2023-03-24T22:48:25.832Z,100.00
2023-03-24T22:50:53.089Z,100.00
2023-03-24T22:53:20.502Z,100.00
2023-03-24T22:55:47.526Z,100.00
2023-03-24T22:58:14.780Z,100.00
2023-03-24T23:00:42.209Z,100.00
2023-03-24T23:03:09.584Z,100.00
2023-03-24T23:05:43.588Z,100.00
2023-03-24T23:08:10.581Z,100.00
2023-03-24T23:10:37.561Z,100.00
2023-03-24T23:13:04.525Z,100.00
2023-03-24T23:15:32.156Z,100.00
2023-03-24T23:17:59.547Z,100.00
2023-03-24T23:20:28.233Z,100.00
2023-03-24T23:22:55.663Z,100.00
2023-03-24T23:25:22.716Z,100.00
2023-03-24T23:27:49.717Z,100.00
2023-03-24T23:30:16.664Z,100.00
2023-03-24T23:32:44.373Z,100.00
2023-03-24T23:35:11.525Z,100.00
2023-03-24T23:37:39.678Z,100.00
2023-03-24T23:40:13.126Z,100.00
2023-03-24T23:42:46.801Z,100.00
2023-03-24T23:45:15.186Z,100.00
2023-03-24T23:47:42.753Z,100.00
2023-03-24T23:50:10.078Z,100.00
2023-03-24T23:52:37.468Z,100.00
2023-03-24T23:55:04.838Z,100.00
2023-03-24T23:57:31.789Z,100.00
2023-03-24T23:59:59.998Z,100.00
